Yunta, Australia
Current Conditions -  °F | °C
As of 4:00 AM on Saturday 22 Nov 2014 (Local Time) from YBHI Reporting Station
Clear Clear  
Wind Chill: 72°   Ceiling: Unl
Heat Index: 72°   Visibility: 6mi
Dew Point: 45°   Wind: 13mph
Humidity: 38%   Direction: 40°NE
Pressure: 29.8"   Gusts: NA
Location:  32.58°S, 139.56°E
Report Text: YBHI 211800Z AUTO 04011KT 9999 // NCD 22/07 Q1009
Loading
Personal Weather Stations






























Interactive Weather Map New forecast layout! Learn more

10-Day Weather Forecast

Advertisements
Track Severe Weather on mobile